createdAt,value
2023-01-30T00:00:03.022Z,19.25
2023-01-30T00:01:03.000Z,19.37
2023-01-30T00:02:02.956Z,19.38
2023-01-30T00:03:02.899Z,19.36
2023-01-30T00:04:02.871Z,19.16
2023-01-30T00:05:02.836Z,19.23
2023-01-30T00:06:02.769Z,19.29
2023-01-30T00:07:02.727Z,19.36
2023-01-30T00:08:02.694Z,19.35
2023-01-30T00:09:02.646Z,19.32
2023-01-30T00:10:02.613Z,19.19
2023-01-30T00:11:02.569Z,19.26
2023-01-30T00:12:02.548Z,19.34
2023-01-30T00:13:02.490Z,19.38
2023-01-30T00:14:02.472Z,19.38
2023-01-30T00:15:02.411Z,19.15
2023-01-30T00:16:02.441Z,19.23
2023-01-30T00:17:02.324Z,19.23
2023-01-30T00:18:02.290Z,19.38
2023-01-30T00:19:02.235Z,19.38
2023-01-30T00:20:02.317Z,19.36
2023-01-30T00:21:02.153Z,19.19
2023-01-30T00:22:02.118Z,19.19
2023-01-30T00:23:02.077Z,19.31
2023-01-30T00:24:02.074Z,19.35
2023-01-30T00:25:02.116Z,19.42
2023-01-30T00:26:01.930Z,19.25
2023-01-30T00:27:01.892Z,19.20
2023-01-30T00:28:01.946Z,19.32
2023-01-30T00:29:01.815Z,19.34
2023-01-30T00:30:03.597Z,19.38
2023-01-30T00:31:01.771Z,19.39
2023-01-30T00:32:01.697Z,19.19
2023-01-30T00:33:01.637Z,19.18
2023-01-30T00:34:01.598Z,19.25
2023-01-30T00:35:01.587Z,19.35
2023-01-30T00:36:01.528Z,19.40
2023-01-30T00:37:08.124Z,19.13
2023-01-30T00:38:02.494Z,19.17
2023-01-30T00:39:01.386Z,19.17
2023-01-30T00:40:01.340Z,19.31
2023-01-30T00:41:01.312Z,19.38
2023-01-30T00:42:01.265Z,19.35
2023-01-30T00:43:01.230Z,19.11
2023-01-30T00:44:01.182Z,19.12
2023-01-30T00:45:01.161Z,19.20
2023-01-30T00:46:01.163Z,19.20
2023-01-30T00:47:01.047Z,19.29
2023-01-30T00:48:01.004Z,19.38
2023-01-30T00:49:00.965Z,19.20
2023-01-30T00:50:00.929Z,19.22
2023-01-30T00:51:00.884Z,19.23
2023-01-30T00:52:00.838Z,19.28
2023-01-30T00:53:00.810Z,19.34
2023-01-30T00:54:00.776Z,19.29
2023-01-30T00:55:00.724Z,19.15
2023-01-30T00:56:00.671Z,19.17
2023-01-30T00:57:00.622Z,19.32
2023-01-30T00:58:00.587Z,19.32
2023-01-30T00:59:00.533Z,19.41
2023-01-30T01:00:00.483Z,19.13
2023-01-30T01:01:00.461Z,19.19
2023-01-30T01:02:00.536Z,19.22
2023-01-30T01:03:00.460Z,19.35
2023-01-30T01:04:00.306Z,19.36
2023-01-30T01:05:00.284Z,19.26
2023-01-30T01:06:00.214Z,19.23
2023-01-30T01:07:00.181Z,19.17
2023-01-30T01:08:00.121Z,19.31
2023-01-30T01:09:00.136Z,19.31
2023-01-30T01:10:00.042Z,19.38
2023-01-30T01:10:59.989Z,19.22
2023-01-30T01:11:59.952Z,19.11
2023-01-30T01:12:59.918Z,19.25
2023-01-30T01:13:59.863Z,19.31
2023-01-30T01:14:59.814Z,19.36
2023-01-30T01:15:59.799Z,19.30
2023-01-30T01:16:59.710Z,19.13
2023-01-30T01:17:59.661Z,19.16
2023-01-30T01:18:59.623Z,19.23
2023-01-30T01:19:59.592Z,19.35
2023-01-30T01:20:59.527Z,19.32
2023-01-30T01:21:59.496Z,19.20
2023-01-30T01:22:59.437Z,19.10
2023-01-30T01:23:59.403Z,19.10
2023-01-30T01:24:59.355Z,19.20
2023-01-30T01:25:59.327Z,19.25
2023-01-30T01:26:59.262Z,19.35
2023-01-30T01:27:59.226Z,19.14
2023-01-30T01:28:59.185Z,19.12
2023-01-30T01:30:01.166Z,19.12
2023-01-30T01:30:59.120Z,19.26
2023-01-30T01:31:59.194Z,19.35
2023-01-30T01:32:59.008Z,19.25
2023-01-30T01:33:58.966Z,19.15
2023-01-30T01:34:58.970Z,19.22
2023-01-30T01:35:58.901Z,19.17
2023-01-30T01:36:58.833Z,19.29
2023-01-30T01:37:58.797Z,19.36
2023-01-30T01:38:58.746Z,19.20
2023-01-30T01:39:58.703Z,19.14
2023-01-30T01:40:58.663Z,19.19
2023-01-30T01:41:58.629Z,19.29
2023-01-30T01:42:58.572Z,19.33
2023-01-30T01:43:58.525Z,19.28
2023-01-30T01:44:58.477Z,19.14
2023-01-30T01:45:58.464Z,19.16
2023-01-30T01:46:58.397Z,19.26
2023-01-30T01:47:58.335Z,19.26
2023-01-30T01:48:58.302Z,19.38
2023-01-30T01:49:58.241Z,19.20
2023-01-30T01:50:58.214Z,19.07
2023-01-30T01:51:58.163Z,19.17
2023-01-30T01:52:58.106Z,19.25
2023-01-30T01:53:58.049Z,19.33
2023-01-30T01:54:58.003Z,19.32
2023-01-30T01:55:57.966Z,19.17
2023-01-30T01:56:57.919Z,19.16
2023-01-30T01:57:57.877Z,19.17
2023-01-30T01:58:57.827Z,19.29
2023-01-30T01:59:57.771Z,19.32
2023-01-30T02:00:57.776Z,19.33
2023-01-30T02:01:57.704Z,19.17
2023-01-30T02:02:57.645Z,19.19
2023-01-30T02:03:57.580Z,19.22
2023-01-30T02:04:57.542Z,19.29
2023-01-30T02:05:57.479Z,19.33
2023-01-30T02:06:57.432Z,19.23
2023-01-30T02:07:57.378Z,19.16
2023-01-30T02:08:57.322Z,19.23
2023-01-30T02:09:57.264Z,19.34
2023-01-30T02:10:57.213Z,19.23
2023-01-30T02:11:57.150Z,19.35
2023-01-30T02:12:57.105Z,19.11
2023-01-30T02:13:57.039Z,19.14
2023-01-30T02:14:56.992Z,19.22
2023-01-30T02:15:56.951Z,19.29
2023-01-30T02:16:56.888Z,19.36
2023-01-30T02:17:56.850Z,19.19
2023-01-30T02:18:56.785Z,19.10
2023-01-30T02:19:56.739Z,19.17
2023-01-30T02:20:56.679Z,19.23
2023-01-30T02:21:56.627Z,19.26
2023-01-30T02:22:56.576Z,19.35
2023-01-30T02:23:56.535Z,19.18
2023-01-30T02:24:56.481Z,19.16
2023-01-30T02:25:56.689Z,19.20
2023-01-30T02:26:56.385Z,19.25
2023-01-30T02:27:56.326Z,19.29
2023-01-30T02:28:56.280Z,19.32
2023-01-30T02:29:56.237Z,19.07
2023-01-30T02:30:56.272Z,19.20
2023-01-30T02:31:56.140Z,19.23
2023-01-30T02:32:56.088Z,19.29
2023-01-30T02:33:56.030Z,19.32
2023-01-30T02:34:55.984Z,19.22
2023-01-30T02:35:55.941Z,19.13
2023-01-30T02:36:55.890Z,19.20
2023-01-30T02:37:55.848Z,19.25
2023-01-30T02:38:55.810Z,19.33
2023-01-30T02:39:55.764Z,19.32
2023-01-30T02:40:55.724Z,19.13
2023-01-30T02:41:55.674Z,19.14
2023-01-30T02:42:55.618Z,19.19
2023-01-30T02:43:55.567Z,19.25
2023-01-30T02:44:55.522Z,19.28
2023-01-30T02:45:55.491Z,19.14
2023-01-30T02:46:55.432Z,19.05
2023-01-30T03:45:52.386Z,19.30
2023-01-30T03:46:52.284Z,19.36
2023-01-30T03:47:52.253Z,19.17
2023-01-30T03:48:52.205Z,19.09
2023-01-30T03:49:52.164Z,19.09
2023-01-30T03:50:52.121Z,19.11
2023-01-30T03:51:52.068Z,19.18
2023-01-30T03:52:52.037Z,19.25
2023-01-30T03:53:51.991Z,19.15
2023-01-30T03:54:51.949Z,19.14
2023-01-30T03:55:51.918Z,19.15
2023-01-30T03:56:51.871Z,19.20
2023-01-30T03:57:51.819Z,19.17
2023-01-30T03:58:51.786Z,19.23
2023-01-30T03:59:51.725Z,19.15
2023-01-30T04:00:51.699Z,19.04
2023-01-30T04:01:51.641Z,19.17
2023-01-30T04:02:51.600Z,19.28
2023-01-30T04:03:51.553Z,19.23
2023-01-30T04:04:51.521Z,19.29
2023-01-30T04:05:51.482Z,19.14
2023-01-30T04:06:51.420Z,19.13
2023-01-30T04:07:51.392Z,19.09
2023-01-30T04:08:51.328Z,19.18
2023-01-30T04:09:51.298Z,19.28
2023-01-30T04:10:51.259Z,19.29
2023-01-30T04:11:51.191Z,19.07
2023-01-30T04:12:51.149Z,19.11
2023-01-30T04:13:51.101Z,19.16
2023-01-30T04:14:51.059Z,19.15
2023-01-30T04:15:51.020Z,19.30
2023-01-30T04:16:50.991Z,19.15
2023-01-30T04:17:50.975Z,19.04
2023-01-30T04:18:50.910Z,19.01
2023-01-30T04:19:50.956Z,19.13
2023-01-30T04:20:50.787Z,19.26
2023-01-30T04:21:50.770Z,19.26
2023-01-30T04:22:50.702Z,19.18
2023-01-30T04:23:50.661Z,19.07
2023-01-30T04:24:50.594Z,19.08
2023-01-30T04:25:50.540Z,19.09
2023-01-30T04:26:50.499Z,19.15
2023-01-30T04:27:50.440Z,19.23
2023-01-30T04:28:50.405Z,19.20
2023-01-30T04:29:50.343Z,19.01
2023-01-30T04:30:50.315Z,19.11
2023-01-30T04:31:50.259Z,19.13
2023-01-30T04:32:50.207Z,19.09
2023-01-30T04:33:50.157Z,19.18
2023-01-30T04:34:50.109Z,19.21
2023-01-30T04:35:50.057Z,19.11
2023-01-30T04:36:50.030Z,19.07
2023-01-30T04:37:49.983Z,19.17
2023-01-30T04:38:49.920Z,19.18
2023-01-30T04:39:49.892Z,19.20
2023-01-30T04:40:49.826Z,19.21
2023-01-30T04:41:49.786Z,19.06
2023-01-30T04:42:49.745Z,19.14
2023-01-30T04:43:49.689Z,19.17
2023-01-30T04:44:49.643Z,19.21
2023-01-30T04:45:49.592Z,19.25
2023-01-30T04:46:49.542Z,19.11
2023-01-30T04:47:49.562Z,19.08
2023-01-30T04:48:49.458Z,19.08
2023-01-30T04:49:49.403Z,19.18
2023-01-30T04:50:49.343Z,19.20
2023-01-30T04:51:49.306Z,19.26
2023-01-30T04:52:49.255Z,19.12
2023-01-30T04:53:49.195Z,19.12
2023-01-30T04:54:49.141Z,19.12
2023-01-30T04:55:49.091Z,19.14
2023-01-30T04:56:49.045Z,19.18
2023-01-30T04:57:48.997Z,19.27
2023-01-30T04:58:48.937Z,19.09
2023-01-30T04:59:48.896Z,18.98
2023-01-30T05:00:48.893Z,19.05
2023-01-30T05:01:48.809Z,19.15
2023-01-30T05:02:48.730Z,19.18
2023-01-30T05:03:48.698Z,19.23
2023-01-30T05:04:48.629Z,19.14
2023-01-30T05:05:48.585Z,19.15
2023-01-30T05:06:48.537Z,19.17
2023-01-30T05:07:48.494Z,19.11
2023-01-30T05:08:48.441Z,19.18
2023-01-30T05:09:48.393Z,19.24
2023-01-30T05:10:48.338Z,18.99
2023-01-30T05:11:48.288Z,19.05
2023-01-30T05:12:48.274Z,19.08
2023-01-30T05:13:48.194Z,19.18
2023-01-30T05:14:48.153Z,19.09
2023-01-30T05:15:48.102Z,19.23
2023-01-30T05:16:48.082Z,19.06
2023-01-30T05:17:48.004Z,19.04
2023-01-30T05:18:47.970Z,19.09
2023-01-30T05:19:47.908Z,19.18
2023-01-30T05:20:47.874Z,19.14
2023-01-30T05:21:47.838Z,19.21
2023-01-30T05:22:47.755Z,19.17
2023-01-30T05:23:47.708Z,19.11
2023-01-30T05:24:47.665Z,19.08
2023-01-30T05:25:47.620Z,19.15
2023-01-30T05:26:47.601Z,19.14
2023-01-30T05:27:47.515Z,19.24
2023-01-30T05:28:47.472Z,19.18
2023-01-30T05:29:47.419Z,19.06
2023-01-30T05:30:47.595Z,18.99
2023-01-30T05:31:47.341Z,19.11
2023-01-30T05:32:47.269Z,19.20
2023-01-30T05:33:47.207Z,19.23
2023-01-30T05:34:47.151Z,19.05
2023-01-30T05:35:47.103Z,19.05
2023-01-30T05:36:47.043Z,19.05
2023-01-30T05:37:47.007Z,19.14
2023-01-30T05:38:46.943Z,19.18
2023-01-30T05:39:46.900Z,19.21
2023-01-30T05:40:46.838Z,19.11
2023-01-30T05:41:46.782Z,18.99
2023-01-30T05:42:46.738Z,19.12
2023-01-30T05:43:46.676Z,19.18
2023-01-30T05:44:46.620Z,19.23
2023-01-30T05:45:46.577Z,19.14
2023-01-30T05:46:46.550Z,19.01
2023-01-30T05:47:46.476Z,19.08
2023-01-30T05:48:46.433Z,19.01
2023-01-30T05:49:46.406Z,19.17
2023-01-30T05:50:46.328Z,19.20
2023-01-30T05:51:46.290Z,19.15
2023-01-30T05:52:46.223Z,19.05
2023-01-30T05:53:46.187Z,19.04
2023-01-30T05:54:46.188Z,19.04
2023-01-30T05:55:46.079Z,19.17
2023-01-30T05:56:46.015Z,19.20
2023-01-30T05:57:45.978Z,19.06
2023-01-30T05:58:45.915Z,18.95
2023-01-30T05:59:45.879Z,19.02
2023-01-30T06:00:45.813Z,19.11
2023-01-30T06:01:45.753Z,19.12
2023-01-30T06:02:45.727Z,19.20
2023-01-30T06:03:45.669Z,19.12
2023-01-30T06:04:45.596Z,18.98
2023-01-30T06:05:45.555Z,19.02
2023-01-30T06:06:45.503Z,19.04
2023-01-30T06:07:45.453Z,19.09
2023-01-30T06:08:45.424Z,19.18
2023-01-30T06:09:45.389Z,19.03
2023-01-30T06:10:45.317Z,19.11
2023-01-30T06:11:45.274Z,19.06
2023-01-30T06:12:45.226Z,19.15
2023-01-30T06:13:45.159Z,19.12
2023-01-30T06:14:45.122Z,19.12
2023-01-30T06:15:45.078Z,19.06
2023-01-30T06:16:45.039Z,18.99
2023-01-30T06:17:45.782Z,18.99
2023-01-30T06:18:44.924Z,19.05
2023-01-30T06:19:44.860Z,19.12
2023-01-30T06:20:44.824Z,19.15
2023-01-30T06:21:44.769Z,19.03
2023-01-30T06:22:44.704Z,18.93
2023-01-30T06:23:44.725Z,18.89
2023-01-30T06:24:44.603Z,19.03
2023-01-30T06:25:44.559Z,19.14
2023-01-30T06:26:44.544Z,19.09
2023-01-30T06:27:44.527Z,18.93
2023-01-30T06:28:44.410Z,18.98
2023-01-30T06:29:44.362Z,19.04
2023-01-30T06:30:44.416Z,19.02
2023-01-30T06:31:44.301Z,19.08
2023-01-30T06:32:44.201Z,19.11
2023-01-30T06:33:44.187Z,18.99
2023-01-30T06:34:44.095Z,18.99
2023-01-30T06:35:44.047Z,19.03
2023-01-30T06:36:43.993Z,19.06
2023-01-30T06:37:43.973Z,19.12
2023-01-30T06:38:43.891Z,18.93
2023-01-30T06:39:43.840Z,19.01
2023-01-30T06:40:43.792Z,19.01
2023-01-30T06:41:43.741Z,19.46
2023-01-30T06:42:43.672Z,20.15
2023-01-30T06:43:43.627Z,20.33
2023-01-30T06:44:43.595Z,20.33
2023-01-30T06:45:43.526Z,20.53
2023-01-30T06:46:43.467Z,20.87
2023-01-30T06:47:43.406Z,21.09
2023-01-30T06:48:43.346Z,21.27
2023-01-30T06:49:43.302Z,21.49
2023-01-30T06:50:43.244Z,21.66
2023-01-30T06:51:43.176Z,21.87
2023-01-30T06:52:43.130Z,22.03
2023-01-30T06:53:43.070Z,22.19
2023-01-30T06:54:43.015Z,22.27
2023-01-30T06:55:42.981Z,22.55
2023-01-30T06:56:42.907Z,22.65
2023-01-30T06:57:42.871Z,22.94
2023-01-30T06:58:42.784Z,23.06
2023-01-30T06:59:42.744Z,23.30
2023-01-30T07:00:42.679Z,23.23
2023-01-30T07:01:42.667Z,23.31
2023-01-30T07:02:42.578Z,23.37
2023-01-30T07:03:42.625Z,23.47
2023-01-30T07:04:42.450Z,23.43
2023-01-30T07:05:42.427Z,23.47
2023-01-30T07:06:42.318Z,23.59
2023-01-30T07:07:42.270Z,23.68
2023-01-30T07:08:42.206Z,23.65
2023-01-30T07:09:42.186Z,23.85
2023-01-30T07:10:42.150Z,23.82
2023-01-30T07:11:42.052Z,23.81
2023-01-30T07:12:41.983Z,23.89
2023-01-30T07:13:41.962Z,23.84
2023-01-30T07:14:42.423Z,23.89
2023-01-30T07:15:41.776Z,23.81
2023-01-30T07:16:41.790Z,23.90
2023-01-30T07:17:41.661Z,23.88
2023-01-30T07:18:41.586Z,23.98
2023-01-30T07:19:41.539Z,23.97
2023-01-30T07:20:41.483Z,23.97
2023-01-30T07:21:41.497Z,23.87
2023-01-30T07:22:41.352Z,23.86
2023-01-30T07:23:41.288Z,23.81
2023-01-30T07:24:41.224Z,23.79
2023-01-30T07:25:41.211Z,23.79
2023-01-30T07:26:41.148Z,23.74
2023-01-30T07:27:41.097Z,23.74
2023-01-30T07:28:40.993Z,23.86
2023-01-30T07:29:40.926Z,23.84
2023-01-30T07:30:40.886Z,23.81
2023-01-30T07:31:40.874Z,23.77
2023-01-30T07:32:40.742Z,23.98
2023-01-30T07:33:40.683Z,23.84
2023-01-30T07:34:40.613Z,23.76
2023-01-30T07:35:40.641Z,23.75
2023-01-30T07:36:40.519Z,23.77
2023-01-30T07:37:40.448Z,23.77
2023-01-30T07:38:40.392Z,23.76
2023-01-30T07:39:40.308Z,23.76
2023-01-30T07:40:40.253Z,23.74
2023-01-30T07:41:40.208Z,23.76
2023-01-30T07:42:40.140Z,23.90
2023-01-30T07:43:40.129Z,23.92
2023-01-30T07:44:40.029Z,24.08
2023-01-30T07:45:39.947Z,24.11
2023-01-30T07:46:39.914Z,24.18
2023-01-30T07:47:39.830Z,24.11
2023-01-30T07:48:39.757Z,24.21
2023-01-30T07:49:39.696Z,24.39
2023-01-30T07:50:39.641Z,24.39
2023-01-30T07:51:39.561Z,24.55
2023-01-30T07:52:39.514Z,24.53
2023-01-30T07:53:39.481Z,24.41
2023-01-30T07:54:39.376Z,24.53
2023-01-30T07:55:39.325Z,24.67
2023-01-30T07:56:39.282Z,24.77
2023-01-30T07:57:39.226Z,24.96
2023-01-30T07:58:39.112Z,24.80
2023-01-30T07:59:39.045Z,24.77
2023-01-30T08:00:38.978Z,24.95
2023-01-30T08:01:38.918Z,24.91
2023-01-30T08:02:38.878Z,25.12
2023-01-30T08:03:38.791Z,25.16
2023-01-30T08:04:38.790Z,24.98
2023-01-30T08:05:38.682Z,25.11
2023-01-30T08:06:38.633Z,25.15
2023-01-30T08:07:38.544Z,25.23
2023-01-30T08:08:38.480Z,25.32
2023-01-30T08:09:38.419Z,25.40
2023-01-30T08:10:38.386Z,25.32
2023-01-30T08:11:38.297Z,25.26
2023-01-30T08:12:38.227Z,25.44
2023-01-30T08:13:38.160Z,25.40
2023-01-30T08:14:38.115Z,25.54
2023-01-30T08:15:38.081Z,25.55
2023-01-30T08:16:38.048Z,25.50
2023-01-30T08:17:37.915Z,25.35
2023-01-30T08:18:37.851Z,25.30
2023-01-30T08:19:37.780Z,25.36
2023-01-30T08:20:37.723Z,25.48
2023-01-30T08:21:37.662Z,25.36
2023-01-30T08:22:37.595Z,25.27
2023-01-30T08:23:37.538Z,25.05
2023-01-30T08:24:37.460Z,25.13
2023-01-30T08:25:37.421Z,25.42
2023-01-30T08:26:37.423Z,25.21
2023-01-30T08:27:37.294Z,25.26
2023-01-30T08:28:37.227Z,25.20
2023-01-30T08:29:37.199Z,25.09
2023-01-30T08:30:37.142Z,25.02
2023-01-30T08:31:37.116Z,25.02
2023-01-30T08:32:36.986Z,25.06
2023-01-30T08:33:36.922Z,25.02
2023-01-30T08:34:36.847Z,24.98
2023-01-30T08:35:36.792Z,24.69
2023-01-30T08:36:36.727Z,25.24
2023-01-30T08:37:36.666Z,25.56
2023-01-30T08:38:36.695Z,25.50
2023-01-30T08:39:37.360Z,25.50
2023-01-30T08:40:36.464Z,25.53
2023-01-30T08:41:36.401Z,25.65
2023-01-30T08:42:36.329Z,25.53
2023-01-30T08:43:36.268Z,25.48
2023-01-30T08:44:36.365Z,25.45
2023-01-30T08:45:36.149Z,25.48
2023-01-30T08:46:36.088Z,25.27
2023-01-30T08:47:36.016Z,25.11
2023-01-30T08:48:47.667Z,24.96
2023-01-30T08:49:36.895Z,25.11
2023-01-30T08:50:35.816Z,25.21
2023-01-30T08:51:35.752Z,25.26
2023-01-30T08:52:35.686Z,25.22
2023-01-30T08:53:35.617Z,25.07
2023-01-30T08:54:35.551Z,25.05
2023-01-30T08:55:35.482Z,25.20
2023-01-30T08:56:35.415Z,25.40
2023-01-30T09:40:32.455Z,23.39
2023-01-30T09:52:31.615Z,22.95
2023-01-30T09:53:31.550Z,22.95
2023-01-30T09:54:31.483Z,22.89
2023-01-30T09:55:31.406Z,22.93
2023-01-30T09:56:31.345Z,22.92
2023-01-30T09:57:31.281Z,22.92
2023-01-30T09:58:31.206Z,22.31
2023-01-30T09:59:31.139Z,22.27
2023-01-30T10:00:31.085Z,22.35
2023-01-30T10:01:31.015Z,22.49
2023-01-30T10:02:30.937Z,22.56
2023-01-30T10:03:30.918Z,22.27
2023-01-30T10:04:30.927Z,21.94
2023-01-30T10:05:30.722Z,21.91
2023-01-30T10:06:30.656Z,22.09
2023-01-30T10:07:30.601Z,22.23
2023-01-30T10:08:30.526Z,22.27
2023-01-30T10:09:30.450Z,21.77
2023-01-30T10:10:30.478Z,21.80
2023-01-30T10:11:30.335Z,21.86
2023-01-30T10:12:30.255Z,21.98
2023-01-30T10:13:30.194Z,22.11
2023-01-30T10:14:30.135Z,21.79
2023-01-30T10:15:30.050Z,21.58
2023-01-30T10:17:32.435Z,21.69
2023-01-30T10:18:29.874Z,21.83
2023-01-30T10:19:36.029Z,21.83
2023-01-30T10:20:30.718Z,21.65
2023-01-30T10:21:29.651Z,21.53
2023-01-30T10:24:29.453Z,21.71
2023-01-30T10:25:29.396Z,21.73
2023-01-30T10:26:29.369Z,21.49
2023-01-30T10:27:29.250Z,21.46
2023-01-30T10:28:29.195Z,21.61
2023-01-30T10:29:29.147Z,21.58
2023-01-30T10:30:29.072Z,21.69
2023-01-30T10:31:29.005Z,21.52
2023-01-30T10:32:28.949Z,21.42
2023-01-30T10:33:28.892Z,21.59
2023-01-30T10:34:28.788Z,21.59
2023-01-30T10:35:28.720Z,21.58
2023-01-30T10:36:28.652Z,21.62
2023-01-30T10:37:28.617Z,21.62
2023-01-30T10:38:28.516Z,21.59
2023-01-30T10:39:28.456Z,21.75
2023-01-30T10:40:28.405Z,22.39
2023-01-30T10:41:28.303Z,22.97
2023-01-30T10:42:28.241Z,24.10
2023-01-30T10:43:28.192Z,25.42
2023-01-30T10:44:28.106Z,25.36
2023-01-30T10:45:28.039Z,25.54
2023-01-30T10:46:28.033Z,25.37
2023-01-30T10:47:29.796Z,25.58
2023-01-30T10:48:42.608Z,25.67
2023-01-30T10:49:28.740Z,25.88
2023-01-30T10:50:27.673Z,25.93
2023-01-30T10:51:27.616Z,26.65
2023-01-30T10:52:27.520Z,26.99
2023-01-30T10:53:27.435Z,27.72
2023-01-30T10:54:27.379Z,27.58
2023-01-30T10:55:36.825Z,27.52
2023-01-30T10:56:28.238Z,28.02
2023-01-30T10:57:27.167Z,28.13
2023-01-30T10:58:27.099Z,28.20
2023-01-30T10:59:27.051Z,28.06
2023-01-30T11:00:26.952Z,28.37
2023-01-30T11:01:26.934Z,28.50
2023-01-30T11:02:26.847Z,28.50
2023-01-30T11:03:26.743Z,28.32
2023-01-30T11:04:26.668Z,28.33
2023-01-30T11:05:26.605Z,28.24
2023-01-30T11:06:26.530Z,28.17
2023-01-30T11:07:26.451Z,28.07
2023-01-30T11:08:26.384Z,28.39
2023-01-30T11:09:26.300Z,28.41
2023-01-30T11:10:26.233Z,28.38
2023-01-30T11:11:26.156Z,28.28
2023-01-30T11:12:26.098Z,28.21
2023-01-30T11:13:26.033Z,28.39
2023-01-30T11:14:25.962Z,28.32
2023-01-30T11:15:25.954Z,28.68
2023-01-30T11:16:25.869Z,28.60
2023-01-30T11:17:25.752Z,28.40
2023-01-30T11:19:26.608Z,28.54
2023-01-30T11:20:25.527Z,28.65
2023-01-30T11:21:34.896Z,28.54
2023-01-30T11:22:26.391Z,28.51
2023-01-30T11:23:25.326Z,28.62
2023-01-30T11:24:25.228Z,28.69
2023-01-30T11:25:25.420Z,28.83
2023-01-30T11:26:32.035Z,28.83
2023-01-30T11:27:26.007Z,28.85
2023-01-30T11:28:24.935Z,28.75
2023-01-30T11:29:24.869Z,28.79
2023-01-30T11:30:24.793Z,28.79
2023-01-30T11:31:40.018Z,28.92
2023-01-30T11:32:25.780Z,28.92
2023-01-30T11:33:24.567Z,28.83
2023-01-30T11:34:24.500Z,28.98
2023-01-30T11:35:24.529Z,29.24
2023-01-30T11:36:24.348Z,29.18
2023-01-30T11:37:24.283Z,29.28
2023-01-30T11:38:24.193Z,29.22
2023-01-30T11:39:24.134Z,29.10
2023-01-30T11:40:24.053Z,28.73
2023-01-30T11:41:23.982Z,28.49
2023-01-30T11:42:23.909Z,28.20
2023-01-30T11:43:23.832Z,27.93
2023-01-30T11:44:23.778Z,27.52
2023-01-30T11:45:23.704Z,27.28
2023-01-30T11:46:23.634Z,27.16
2023-01-30T11:47:23.545Z,27.05
2023-01-30T11:48:34.104Z,26.71
2023-01-30T11:49:46.242Z,26.44
2023-01-30T11:50:24.382Z,26.23
2023-01-30T11:51:23.260Z,26.14
2023-01-30T11:52:23.205Z,26.38
2023-01-30T11:53:23.121Z,26.16
2023-01-30T11:54:23.063Z,25.86
2023-01-30T11:55:22.979Z,26.02
2023-01-30T11:56:22.917Z,25.76
2023-01-30T11:57:22.836Z,25.66
2023-01-30T11:58:22.760Z,25.69
2023-01-30T11:59:22.714Z,25.20
2023-01-30T12:00:22.633Z,25.31
2023-01-30T12:01:22.558Z,27.10
2023-01-30T12:02:22.579Z,27.49
2023-01-30T12:03:23.430Z,28.24
2023-01-30T12:04:22.368Z,28.42
2023-01-30T12:05:22.323Z,27.90
2023-01-30T12:06:22.252Z,26.70
2023-01-30T12:07:22.228Z,26.09
2023-01-30T12:08:40.268Z,25.73
2023-01-30T12:09:23.047Z,25.72
2023-01-30T12:10:21.980Z,25.55
2023-01-30T12:11:21.924Z,25.27
2023-01-30T12:12:21.838Z,25.13
2023-01-30T12:13:21.774Z,24.95
2023-01-30T12:14:21.710Z,24.80
2023-01-30T12:15:21.668Z,24.76
2023-01-30T12:16:21.612Z,24.54
2023-01-30T12:17:21.581Z,24.51
2023-01-30T12:18:21.450Z,24.34
2023-01-30T12:19:21.402Z,24.35
2023-01-30T12:20:21.563Z,24.62
2023-01-30T12:21:21.262Z,24.30
2023-01-30T12:22:21.217Z,24.05
2023-01-30T12:23:21.163Z,23.90
2023-01-30T12:24:21.056Z,23.91
2023-01-30T12:25:20.991Z,24.09
2023-01-30T12:26:20.976Z,23.92
2023-01-30T12:27:20.883Z,23.72
2023-01-30T12:28:20.797Z,23.61
2023-01-30T12:29:20.728Z,23.60
2023-01-30T12:30:20.963Z,23.63
2023-01-30T12:31:20.602Z,23.58
2023-01-30T12:32:20.561Z,23.51
2023-01-30T12:33:20.458Z,23.32
2023-01-30T12:34:24.263Z,23.29
2023-01-30T12:35:21.332Z,23.38
2023-01-30T12:36:20.269Z,23.52
2023-01-30T12:37:20.178Z,23.32
2023-01-30T12:38:20.124Z,23.14
2023-01-30T12:39:20.063Z,22.94
2023-01-30T12:40:19.979Z,23.09
2023-01-30T12:41:19.913Z,23.31
2023-01-30T12:42:22.767Z,23.10
2023-01-30T12:43:20.782Z,22.83
2023-01-30T12:44:19.722Z,22.70
2023-01-30T12:45:20.002Z,22.86
2023-01-30T12:46:19.629Z,22.89
2023-01-30T12:47:19.527Z,22.76
2023-01-30T12:48:19.468Z,22.50
2023-01-30T12:49:19.415Z,22.73
2023-01-30T12:50:19.339Z,22.47
2023-01-30T12:51:19.283Z,22.52
2023-01-30T12:52:19.216Z,22.64
2023-01-30T12:53:19.159Z,22.52
2023-01-30T12:54:20.344Z,22.33
2023-01-30T12:55:19.054Z,22.38
2023-01-30T12:56:18.982Z,22.54
2023-01-30T12:57:18.907Z,22.38
2023-01-30T12:58:18.826Z,22.32
2023-01-30T12:59:18.782Z,22.15
2023-01-30T13:00:19.046Z,22.17
2023-01-30T13:01:18.695Z,22.08
2023-01-30T13:02:18.628Z,22.31
2023-01-30T13:03:18.524Z,22.26
2023-01-30T13:04:18.453Z,22.01
2023-01-30T13:05:18.410Z,22.10
2023-01-30T13:06:18.389Z,22.20
2023-01-30T13:07:18.272Z,22.25
2023-01-30T13:08:18.217Z,22.32
2023-01-30T13:09:18.166Z,21.92
2023-01-30T13:10:18.640Z,21.96
2023-01-30T13:11:18.047Z,22.00
2023-01-30T13:12:17.977Z,22.20
2023-01-30T13:13:17.919Z,21.95
2023-01-30T13:14:17.861Z,21.88
2023-01-30T13:15:17.814Z,21.89
2023-01-30T13:16:17.779Z,21.99
2023-01-30T13:17:17.693Z,22.01
2023-01-30T13:18:17.639Z,22.04
2023-01-30T13:19:19.266Z,21.85
2023-01-30T13:20:17.937Z,21.93
2023-01-30T13:21:17.431Z,22.08
2023-01-30T13:22:17.367Z,21.98
2023-01-30T13:23:17.302Z,22.04
2023-01-30T13:24:17.233Z,22.16
2023-01-30T13:25:17.195Z,22.23
2023-01-30T13:26:17.171Z,22.22
2023-01-30T13:27:17.099Z,22.13
2023-01-30T13:28:17.007Z,22.23
2023-01-30T13:29:16.959Z,22.19
2023-01-30T13:30:17.197Z,22.22
2023-01-30T13:31:16.966Z,22.22
2023-01-30T13:32:16.913Z,22.13
2023-01-30T13:33:16.703Z,22.17
2023-01-30T13:34:16.636Z,22.17
2023-01-30T13:35:16.617Z,22.25
2023-01-30T13:36:16.536Z,22.28
2023-01-30T13:37:16.468Z,22.24
2023-01-30T13:38:16.402Z,22.27
2023-01-30T13:40:16.620Z,22.25
2023-01-30T13:41:16.224Z,22.27
2023-01-30T13:42:16.168Z,22.25
2023-01-30T13:43:16.118Z,22.30
2023-01-30T13:44:16.054Z,22.27
2023-01-30T13:45:16.004Z,22.28
2023-01-30T13:46:15.954Z,22.27
2023-01-30T13:47:15.920Z,22.27
2023-01-30T13:48:15.833Z,22.28
2023-01-30T13:49:15.781Z,22.29
2023-01-30T13:50:16.142Z,22.25
2023-01-30T13:51:15.667Z,22.29
2023-01-30T13:52:15.724Z,22.31
2023-01-30T13:53:15.551Z,22.30
2023-01-30T13:54:15.497Z,22.26
2023-01-30T13:55:15.491Z,22.29
2023-01-30T13:56:32.972Z,22.33
2023-01-30T13:57:16.336Z,22.32
2023-01-30T13:58:15.242Z,22.33
2023-01-30T13:59:15.202Z,22.27
2023-01-30T14:00:15.211Z,22.27
2023-01-30T14:01:15.112Z,22.30
2023-01-30T14:02:15.096Z,22.29
2023-01-30T14:03:14.941Z,22.34
2023-01-30T14:04:14.874Z,22.36
2023-01-30T14:05:14.839Z,22.32
2023-01-30T14:06:14.778Z,22.24
2023-01-30T14:07:14.752Z,22.30
2023-01-30T14:08:14.639Z,22.27
2023-01-30T14:09:14.573Z,22.24
2023-01-30T14:10:14.507Z,22.30
2023-01-30T14:11:14.454Z,22.24
2023-01-30T14:12:14.380Z,22.30
2023-01-30T14:13:14.349Z,22.24
2023-01-30T14:14:14.270Z,22.30
2023-01-30T14:15:14.215Z,22.30
2023-01-30T14:16:14.159Z,22.26
2023-01-30T14:17:14.107Z,22.27
2023-01-30T14:18:14.015Z,22.26
2023-01-30T14:19:13.976Z,22.24
2023-01-30T14:20:13.918Z,22.23
2023-01-30T14:21:13.836Z,22.29
2023-01-30T14:22:13.772Z,22.32
2023-01-30T14:23:13.744Z,22.29
2023-01-30T14:24:13.648Z,22.29
2023-01-30T14:25:13.587Z,22.33
2023-01-30T14:26:13.557Z,22.39
2023-01-30T14:27:13.478Z,22.34
2023-01-30T14:28:13.420Z,22.36
2023-01-30T14:29:13.346Z,22.41
2023-01-30T14:30:13.287Z,22.46
2023-01-30T14:31:13.349Z,22.43
2023-01-30T14:32:13.297Z,22.46
2023-01-30T14:33:13.113Z,22.43
2023-01-30T14:34:13.045Z,22.50
2023-01-30T14:35:12.984Z,22.45
2023-01-30T14:36:12.916Z,22.54
2023-01-30T14:37:12.867Z,22.51
2023-01-30T14:38:12.809Z,22.53
2023-01-30T14:39:12.745Z,22.54
2023-01-30T14:40:12.675Z,22.51
2023-01-30T14:41:12.677Z,22.50
2023-01-30T14:42:12.613Z,22.55
2023-01-30T14:43:12.508Z,22.54
2023-01-30T14:44:12.442Z,22.54
2023-01-30T14:45:12.381Z,22.51
2023-01-30T14:46:12.320Z,22.54
2023-01-30T14:47:33.952Z,22.54
2023-01-30T14:48:13.268Z,22.55